createdAt,value
2023-03-12T00:08:36.579Z,-0.44
2023-03-12T00:18:41.461Z,-0.47
2023-03-12T00:28:44.793Z,-0.42
2023-03-12T00:38:48.173Z,-0.37
2023-03-12T00:48:51.933Z,-0.45
2023-03-12T00:58:55.669Z,-0.44
2023-03-12T01:08:58.933Z,-0.55
2023-03-12T01:19:03.930Z,-0.69
2023-03-12T01:29:07.182Z,-0.74
2023-03-12T01:39:10.349Z,-0.73
2023-03-12T01:49:34.542Z,-0.81
2023-03-12T01:59:52.219Z,-0.95
2023-03-12T02:09:55.632Z,-0.99
2023-03-12T02:20:11.250Z,-1.04
2023-03-12T02:30:17.249Z,-1.08
2023-03-12T02:40:46.132Z,-1.13
2023-03-12T02:50:49.676Z,-1.10
2023-03-12T03:00:53.121Z,-1.06
2023-03-12T03:10:56.848Z,-1.07
2023-03-12T03:21:05.154Z,-1.04
2023-03-12T03:31:10.011Z,-1.00
2023-03-12T03:41:14.221Z,-1.05
2023-03-12T03:51:18.995Z,-1.23
2023-03-12T04:01:23.886Z,-1.44
2023-03-12T04:11:28.648Z,-1.49
2023-03-12T04:21:33.659Z,-1.51
2023-03-12T04:31:37.033Z,-1.52
2023-03-12T04:41:40.656Z,-1.51
2023-03-12T04:51:46.946Z,-1.52
2023-03-12T05:01:52.011Z,-1.59
2023-03-12T05:11:59.396Z,-1.65
2023-03-12T05:22:03.433Z,-1.85
2023-03-12T05:32:09.034Z,-2.07
2023-03-12T05:42:15.940Z,-2.14
2023-03-12T05:52:19.991Z,-2.13
2023-03-12T06:02:24.439Z,-2.13
2023-03-12T06:12:29.302Z,-2.15
2023-03-12T06:22:32.663Z,-2.14
2023-03-12T06:32:36.661Z,-1.93
2023-03-12T06:42:40.434Z,-0.79
2023-03-12T06:52:43.624Z,0.67
2023-03-12T07:02:46.741Z,1.80
2023-03-12T07:12:51.162Z,2.84
2023-03-12T07:22:54.324Z,3.51
2023-03-12T07:32:57.686Z,3.86
2023-03-12T07:43:01.771Z,3.93
2023-03-12T07:53:08.769Z,4.24
2023-03-12T08:03:13.663Z,4.44
2023-03-12T08:13:18.633Z,4.74
2023-03-12T08:23:22.754Z,4.93
2023-03-12T08:33:26.398Z,5.20
2023-03-12T08:43:30.178Z,5.32
2023-03-12T08:53:36.209Z,4.91
2023-03-12T09:03:41.329Z,5.16
2023-03-12T09:14:14.975Z,4.92
2023-03-12T09:24:09.857Z,4.86
2023-03-12T09:34:13.226Z,5.13
2023-03-12T09:44:40.056Z,5.15
2023-03-12T09:55:05.572Z,5.23
2023-03-12T10:05:33.426Z,4.80
2023-03-12T10:16:03.295Z,4.34
2023-03-12T10:26:26.665Z,4.21
2023-03-12T10:36:34.938Z,4.34
2023-03-12T10:46:41.471Z,4.46
2023-03-12T10:56:50.920Z,4.67
2023-03-12T11:07:07.740Z,4.73
2023-03-12T11:17:24.750Z,4.78
2023-03-12T11:27:44.156Z,4.89
2023-03-12T11:38:15.766Z,4.97
2023-03-12T11:48:30.094Z,5.08
2023-03-12T11:58:57.791Z,5.09
2023-03-12T12:09:38.159Z,4.97
2023-03-12T12:20:14.811Z,5.06
2023-03-12T12:30:48.050Z,5.23
2023-03-12T12:40:55.811Z,5.34
2023-03-12T12:51:02.340Z,5.37
2023-03-12T13:01:06.700Z,5.33
2023-03-12T13:11:24.416Z,5.41
2023-03-12T13:21:30.541Z,5.51
2023-03-12T13:31:35.467Z,5.55
2023-03-12T13:41:41.161Z,5.59
2023-03-12T13:51:52.595Z,5.58
2023-03-12T14:02:02.151Z,5.36
2023-03-12T14:12:19.594Z,5.43
2023-03-12T14:22:24.682Z,5.60
2023-03-12T14:32:31.606Z,5.66
2023-03-12T14:42:36.710Z,5.66
2023-03-12T14:52:39.859Z,5.76
2023-03-12T15:02:44.321Z,5.64
2023-03-12T15:12:49.511Z,5.55
2023-03-12T15:22:53.766Z,5.48
2023-03-12T15:33:17.020Z,5.45
2023-03-12T15:43:24.209Z,5.41
2023-03-12T15:53:33.672Z,5.18
2023-03-12T16:03:37.950Z,4.91
2023-03-12T16:13:45.442Z,4.63
2023-03-12T16:23:48.579Z,4.33
2023-03-12T16:33:51.917Z,4.03
2023-03-12T16:43:55.673Z,3.78
2023-03-12T16:54:09.559Z,3.42
2023-03-12T17:04:14.417Z,2.97
2023-03-12T17:14:22.344Z,2.59
2023-03-12T17:24:29.368Z,2.40
2023-03-12T17:34:32.621Z,2.26
2023-03-12T17:44:37.036Z,2.13
2023-03-12T17:54:41.316Z,1.94
2023-03-12T18:04:44.494Z,1.79
2023-03-12T18:14:48.707Z,1.52
2023-03-12T18:24:51.909Z,1.40
2023-03-12T18:34:56.199Z,1.28
2023-03-12T18:45:01.039Z,1.16
2023-03-12T18:55:05.587Z,1.03
2023-03-12T19:05:11.161Z,0.88
2023-03-12T19:15:14.355Z,0.65
2023-03-12T19:25:20.615Z,0.47
2023-03-12T19:35:24.152Z,0.19
2023-03-12T19:45:27.661Z,0.04
2023-03-12T19:55:32.431Z,0.12
2023-03-12T20:05:35.583Z,0.20
2023-03-12T20:15:40.392Z,0.21
2023-03-12T20:25:43.938Z,0.26
2023-03-12T20:35:50.176Z,0.40
2023-03-12T20:45:53.793Z,0.60
2023-03-12T20:56:01.184Z,0.74
2023-03-12T21:06:08.162Z,0.89
2023-03-12T21:16:12.345Z,1.11
2023-03-12T21:26:15.551Z,1.31
2023-03-12T21:36:18.682Z,1.53
2023-03-12T21:46:24.978Z,1.80
2023-03-12T21:56:30.456Z,2.02
2023-03-12T22:06:34.018Z,2.30
2023-03-12T22:16:37.223Z,2.51
2023-03-12T22:26:40.425Z,2.80
2023-03-12T22:36:44.546Z,3.02
2023-03-12T22:46:47.772Z,3.10
2023-03-12T22:56:50.898Z,3.14
2023-03-12T23:07:01.538Z,3.16
2023-03-12T23:17:11.054Z,3.22
2023-03-12T23:27:14.109Z,3.30
2023-03-12T23:37:17.188Z,3.34
2023-03-12T23:47:20.272Z,3.30
2023-03-12T23:57:23.380Z,3.30
